createdAt,value
2024-04-30T00:00:47.572Z,13.01
2024-04-30T00:03:15.014Z,12.99
2024-04-30T00:05:44.314Z,12.93
2024-04-30T00:08:11.925Z,12.91
2024-04-30T00:10:39.344Z,12.86
2024-04-30T00:13:06.873Z,12.82
2024-04-30T00:15:34.411Z,12.78
2024-04-30T00:18:01.842Z,12.76
2024-04-30T00:20:29.333Z,12.74
2024-04-30T00:22:56.753Z,12.69
2024-04-30T00:25:24.154Z,12.67
2024-04-30T00:27:51.569Z,12.63
2024-04-30T00:30:18.984Z,12.64
2024-04-30T00:32:46.365Z,12.65
2024-04-30T00:35:13.959Z,12.63
2024-04-30T00:37:42.035Z,12.60
2024-04-30T00:40:09.801Z,12.57
2024-04-30T00:42:37.254Z,12.52
2024-04-30T00:45:05.582Z,12.49
2024-04-30T00:47:33.661Z,12.47
2024-04-30T00:50:01.351Z,12.47
2024-04-30T00:52:29.019Z,12.43
2024-04-30T00:54:56.542Z,12.43
2024-04-30T00:57:24.093Z,12.43
2024-04-30T00:59:51.914Z,12.43
2024-04-30T01:02:19.318Z,12.43
2024-04-30T01:04:57.165Z,12.41
2024-04-30T01:07:24.582Z,12.40
2024-04-30T01:09:52.092Z,12.38
2024-04-30T01:12:19.723Z,12.38
2024-04-30T01:14:47.340Z,12.34
2024-04-30T01:17:14.755Z,12.33
2024-04-30T01:19:42.259Z,12.32
2024-04-30T01:22:09.724Z,12.32
2024-04-30T01:24:37.146Z,12.32
2024-04-30T01:27:05.108Z,12.34
2024-04-30T01:29:32.601Z,12.33
2024-04-30T01:32:00.024Z,12.29
2024-04-30T01:34:27.528Z,12.27
2024-04-30T01:36:54.995Z,12.25
2024-04-30T01:39:22.369Z,12.23
2024-04-30T01:41:49.769Z,12.21
2024-04-30T01:44:17.208Z,12.23
2024-04-30T01:46:44.690Z,12.22
2024-04-30T01:49:12.430Z,12.22
2024-04-30T01:51:39.977Z,12.18
2024-04-30T01:54:07.345Z,12.17
2024-04-30T01:56:34.816Z,12.16
2024-04-30T01:59:02.277Z,12.16
2024-04-30T02:01:29.713Z,12.14
2024-04-30T02:03:57.095Z,12.15
2024-04-30T02:06:24.507Z,12.17
2024-04-30T02:08:51.856Z,12.16
2024-04-30T02:11:20.568Z,12.17
2024-04-30T02:13:47.999Z,12.15
2024-04-30T02:16:15.425Z,12.14
2024-04-30T02:18:43.037Z,12.12
2024-04-30T02:21:10.417Z,12.09
2024-04-30T02:23:37.869Z,12.09
2024-04-30T02:26:05.288Z,12.06
2024-04-30T02:28:32.717Z,12.03
2024-04-30T02:31:18.837Z,12.01
2024-04-30T02:34:05.138Z,12.01
2024-04-30T02:36:32.528Z,12.01
2024-04-30T02:38:59.962Z,11.99
2024-04-30T02:41:27.370Z,11.97
2024-04-30T02:43:54.799Z,11.97
2024-04-30T02:46:22.256Z,11.97
2024-04-30T02:48:49.631Z,11.96
2024-04-30T02:51:20.934Z,11.96
2024-04-30T02:53:48.516Z,11.95
2024-04-30T02:56:15.869Z,11.98
2024-04-30T02:58:43.327Z,12.02
2024-04-30T03:01:11.757Z,12.02
2024-04-30T03:03:43.301Z,12.00
2024-04-30T03:06:10.965Z,11.98
2024-04-30T03:08:38.795Z,12.00
2024-04-30T03:11:06.460Z,12.04
2024-04-30T03:13:34.041Z,12.04
2024-04-30T03:16:04.149Z,12.07
2024-04-30T03:18:32.082Z,12.11
2024-04-30T03:20:59.505Z,12.13
2024-04-30T03:23:26.958Z,12.17
2024-04-30T03:25:54.651Z,12.19
2024-04-30T03:28:22.043Z,12.21
2024-04-30T03:30:49.457Z,12.25
2024-04-30T03:33:17.025Z,12.30
2024-04-30T03:35:44.536Z,12.37
2024-04-30T03:38:12.294Z,12.45
2024-04-30T03:40:40.410Z,12.54
2024-04-30T03:43:07.919Z,12.61
2024-04-30T03:45:35.368Z,12.65
2024-04-30T03:48:02.847Z,12.65
2024-04-30T03:50:30.266Z,12.68
2024-04-30T03:52:57.662Z,12.71
2024-04-30T03:55:25.153Z,12.73
2024-04-30T03:57:52.772Z,12.75
2024-04-30T04:00:20.182Z,12.79
2024-04-30T04:02:47.808Z,12.83
2024-04-30T04:05:15.258Z,12.86
2024-04-30T04:07:42.811Z,12.90
2024-04-30T04:10:10.277Z,12.94
2024-04-30T04:12:56.391Z,12.95
2024-04-30T04:15:24.002Z,12.96
2024-04-30T04:17:51.587Z,12.97
2024-04-30T04:20:19.409Z,12.99
2024-04-30T04:22:48.440Z,13.01
2024-04-30T04:25:15.862Z,13.03
2024-04-30T04:27:43.264Z,13.06
2024-04-30T04:30:12.117Z,13.11
2024-04-30T04:32:39.507Z,13.15
2024-04-30T04:35:07.045Z,13.17
2024-04-30T04:37:35.904Z,13.19
2024-04-30T04:40:03.594Z,13.22
2024-04-30T04:42:31.312Z,13.27
2024-04-30T04:44:58.815Z,13.34
2024-04-30T04:47:26.240Z,13.38
2024-04-30T04:49:53.873Z,13.44
2024-04-30T04:52:21.473Z,13.46
2024-04-30T04:54:48.884Z,13.53
2024-04-30T04:57:16.267Z,13.59
2024-04-30T04:59:43.820Z,13.66
2024-04-30T05:02:11.416Z,13.73
2024-04-30T05:04:38.924Z,13.78
2024-04-30T05:07:06.571Z,13.86
2024-04-30T05:09:34.041Z,13.92
2024-04-30T05:12:01.517Z,14.04
2024-04-30T05:14:29.257Z,14.13
2024-04-30T05:16:56.899Z,14.22
2024-04-30T05:19:24.385Z,14.31
2024-04-30T05:21:52.086Z,14.40
2024-04-30T05:24:19.574Z,14.53
2024-04-30T05:26:47.594Z,14.59
2024-04-30T05:29:15.750Z,14.68
2024-04-30T05:31:43.494Z,14.79
2024-04-30T05:34:10.991Z,14.89
2024-04-30T05:36:38.441Z,15.00
2024-04-30T05:39:06.028Z,15.10
2024-04-30T05:41:33.450Z,15.20
2024-04-30T05:44:01.020Z,15.31
2024-04-30T05:46:28.759Z,15.40
2024-04-30T05:48:57.130Z,15.52
2024-04-30T05:51:24.606Z,15.63
2024-04-30T05:53:55.106Z,15.73
2024-04-30T05:56:23.817Z,15.82
2024-04-30T05:58:51.303Z,15.91
2024-04-30T06:01:22.112Z,15.97
2024-04-30T06:03:55.957Z,16.05
2024-04-30T06:06:28.993Z,16.13
2024-04-30T06:08:57.830Z,16.22
2024-04-30T06:11:25.333Z,16.32
2024-04-30T06:13:52.915Z,16.43
2024-04-30T06:16:20.374Z,16.53
2024-04-30T06:18:48.089Z,16.66
2024-04-30T06:21:30.604Z,16.79
2024-04-30T06:24:00.673Z,16.87
2024-04-30T06:26:29.439Z,16.88
2024-04-30T06:28:58.437Z,16.94
2024-04-30T06:31:28.793Z,17.02
2024-04-30T06:33:58.339Z,17.11
2024-04-30T06:36:31.567Z,17.21
2024-04-30T06:39:04.463Z,17.31
2024-04-30T06:41:33.266Z,17.37
2024-04-30T06:44:01.554Z,17.45
2024-04-30T06:46:40.715Z,17.51
2024-04-30T06:49:12.265Z,17.54
2024-04-30T06:51:44.816Z,17.62
2024-04-30T06:54:13.222Z,17.68
2024-04-30T06:56:40.702Z,17.75
2024-04-30T06:59:08.422Z,17.84
2024-04-30T07:01:38.358Z,17.93
2024-04-30T07:04:07.423Z,18.04
2024-04-30T07:06:38.901Z,18.13
2024-04-30T07:09:08.608Z,18.20
2024-04-30T07:11:37.999Z,18.27
2024-04-30T07:14:07.535Z,18.35
2024-04-30T07:16:46.161Z,18.43
2024-04-30T07:19:22.054Z,18.49
2024-04-30T07:21:49.532Z,18.54
2024-04-30T07:24:17.097Z,18.60
2024-04-30T07:26:44.735Z,18.65
2024-04-30T07:29:12.159Z,18.69
2024-04-30T07:31:43.007Z,18.70
2024-04-30T07:34:11.463Z,18.73
2024-04-30T07:36:42.183Z,18.79
2024-04-30T07:39:12.392Z,18.83
2024-04-30T07:41:48.904Z,18.85
2024-04-30T07:44:19.292Z,18.91
2024-04-30T07:46:49.461Z,18.97
2024-04-30T07:49:20.578Z,19.00
2024-04-30T07:51:48.096Z,19.05
2024-04-30T07:54:15.868Z,19.05
2024-04-30T07:56:45.999Z,18.98
2024-04-30T07:59:13.796Z,18.75
2024-04-30T08:01:41.687Z,18.86
2024-04-30T08:04:09.234Z,18.89
2024-04-30T08:06:36.715Z,18.92
2024-04-30T08:09:04.607Z,18.97
2024-04-30T08:11:34.103Z,19.03
2024-04-30T08:14:01.663Z,19.09
2024-04-30T08:16:29.287Z,19.16
2024-04-30T08:18:59.437Z,19.23
2024-04-30T08:21:28.019Z,19.29
2024-04-30T08:24:02.031Z,19.31
2024-04-30T08:26:33.412Z,19.33
2024-04-30T08:29:06.468Z,19.34
2024-04-30T08:31:34.565Z,19.40
2024-04-30T08:34:02.121Z,19.42
2024-04-30T08:36:32.115Z,19.38
2024-04-30T08:39:00.262Z,19.31
2024-04-30T08:41:28.006Z,19.27
2024-04-30T08:43:56.751Z,19.28
2024-04-30T08:46:28.420Z,19.34
2024-04-30T08:48:57.365Z,19.41
2024-04-30T08:51:33.821Z,19.48
2024-04-30T08:54:04.344Z,19.54
2024-04-30T08:56:33.359Z,19.57
2024-04-30T08:59:01.596Z,19.60
2024-04-30T09:01:32.483Z,19.65
2024-04-30T09:06:34.390Z,19.62
2024-04-30T09:09:05.035Z,19.67
2024-04-30T09:11:32.798Z,19.71
2024-04-30T09:14:00.362Z,19.77
2024-04-30T09:16:28.081Z,19.80
2024-04-30T09:18:55.522Z,19.86
2024-04-30T09:21:30.554Z,19.93
2024-04-30T09:24:07.897Z,19.98
2024-04-30T09:26:35.547Z,19.97
2024-04-30T09:29:03.191Z,20.00
2024-04-30T09:31:40.153Z,20.02
2024-04-30T09:34:09.172Z,20.03
2024-04-30T09:36:37.910Z,20.05
2024-04-30T09:39:09.347Z,20.11
2024-04-30T09:41:40.327Z,20.17
2024-04-30T09:44:10.552Z,20.18
2024-04-30T09:46:38.320Z,20.22
2024-04-30T09:49:08.547Z,20.28
2024-04-30T09:51:37.205Z,20.27
2024-04-30T09:54:04.987Z,20.14
2024-04-30T09:56:32.666Z,20.20
2024-04-30T09:59:00.220Z,20.13
2024-04-30T10:01:28.583Z,20.15
2024-04-30T10:03:56.310Z,20.23
2024-04-30T10:06:23.841Z,20.31
2024-04-30T10:08:51.283Z,20.41
2024-04-30T10:11:19.308Z,20.44
2024-04-30T10:13:53.694Z,20.49
2024-04-30T10:16:24.127Z,20.48
2024-04-30T10:19:04.559Z,20.56
2024-04-30T10:21:35.987Z,20.59
2024-04-30T10:24:22.369Z,20.60
2024-04-30T10:26:50.753Z,20.63
2024-04-30T10:29:20.967Z,20.68
2024-04-30T10:31:49.541Z,20.70
2024-04-30T10:34:20.488Z,20.68
2024-04-30T10:36:49.070Z,20.64
2024-04-30T10:39:25.548Z,20.66
2024-04-30T10:41:53.083Z,20.68
2024-04-30T10:44:20.455Z,20.71
2024-04-30T10:46:51.084Z,20.76
2024-04-30T10:49:21.190Z,20.81
2024-04-30T10:51:48.925Z,20.87
2024-04-30T10:54:16.463Z,20.94
2024-04-30T10:56:45.884Z,20.94
2024-04-30T10:59:13.827Z,20.93
2024-04-30T11:01:41.417Z,20.94
2024-04-30T11:04:10.262Z,21.00
2024-04-30T11:06:48.289Z,21.06
2024-04-30T11:09:16.630Z,21.08
2024-04-30T11:11:48.892Z,21.06
2024-04-30T11:14:17.495Z,21.03
2024-04-30T11:16:47.192Z,21.06
2024-04-30T11:19:15.270Z,21.10
2024-04-30T11:21:43.155Z,21.17
2024-04-30T11:24:10.865Z,21.25
2024-04-30T11:26:38.380Z,21.31
2024-04-30T11:29:22.590Z,21.34
2024-04-30T11:31:53.479Z,21.36
2024-04-30T11:34:23.859Z,21.38
2024-04-30T11:36:52.671Z,21.41
2024-04-30T11:39:20.395Z,21.41
2024-04-30T11:41:57.279Z,21.40
2024-04-30T11:44:34.608Z,21.38
2024-04-30T11:47:05.938Z,21.38
2024-04-30T11:49:34.311Z,21.42
2024-04-30T11:52:02.666Z,21.40
2024-04-30T11:54:30.409Z,21.39
2024-04-30T11:56:58.074Z,21.43
2024-04-30T11:59:25.626Z,21.47
2024-04-30T12:01:53.208Z,21.47
2024-04-30T12:04:24.692Z,21.52
2024-04-30T12:06:52.291Z,21.50
2024-04-30T12:09:21.769Z,21.51
2024-04-30T12:11:49.386Z,21.56
2024-04-30T12:14:16.879Z,21.64
2024-04-30T12:16:47.537Z,21.62
2024-04-30T12:19:16.125Z,21.63
2024-04-30T12:21:44.371Z,21.65
2024-04-30T12:24:12.308Z,21.62
2024-04-30T12:26:42.095Z,21.66
2024-04-30T12:29:09.746Z,21.70
2024-04-30T12:31:41.459Z,21.68
2024-04-30T12:34:09.095Z,21.71
2024-04-30T12:36:41.358Z,21.75
2024-04-30T12:39:09.674Z,21.75
2024-04-30T12:41:38.664Z,21.75
2024-04-30T12:44:06.971Z,21.71
2024-04-30T12:46:34.636Z,21.70
2024-04-30T12:49:02.287Z,21.72
2024-04-30T12:51:29.806Z,21.74
2024-04-30T12:53:57.716Z,21.79
2024-04-30T12:56:25.126Z,21.85
2024-04-30T12:58:52.897Z,21.90
2024-04-30T13:01:23.288Z,21.93
2024-04-30T13:03:56.140Z,21.95
2024-04-30T13:06:25.229Z,21.96
2024-04-30T13:08:53.226Z,22.01
2024-04-30T13:11:20.713Z,22.02
2024-04-30T13:13:48.406Z,21.98
2024-04-30T13:16:18.682Z,21.99
2024-04-30T13:18:46.462Z,21.98
2024-04-30T13:21:19.899Z,21.99
2024-04-30T13:23:47.647Z,22.02
2024-04-30T13:26:16.123Z,22.04
2024-04-30T13:28:43.724Z,22.06
2024-04-30T13:31:12.632Z,22.06
2024-04-30T13:33:43.391Z,22.06
2024-04-30T13:36:14.469Z,22.06
2024-04-30T13:38:42.199Z,22.01
2024-04-30T13:41:09.923Z,22.00
2024-04-30T13:43:38.234Z,22.01
2024-04-30T13:46:05.899Z,22.03
2024-04-30T13:48:33.514Z,22.05
2024-04-30T13:51:01.034Z,22.03
2024-04-30T13:53:28.680Z,22.00
2024-04-30T13:55:59.359Z,21.99
2024-04-30T13:58:26.894Z,21.96
2024-04-30T14:00:54.444Z,21.97
2024-04-30T14:03:21.908Z,21.96
2024-04-30T14:05:52.164Z,21.97
2024-04-30T14:08:19.724Z,21.98
2024-04-30T14:10:47.263Z,22.00
2024-04-30T14:13:20.570Z,22.03
2024-04-30T14:15:49.695Z,22.03
2024-04-30T14:18:20.238Z,22.02
2024-04-30T14:20:47.756Z,21.99
2024-04-30T14:23:17.655Z,21.99
2024-04-30T14:25:45.346Z,22.01
2024-04-30T14:28:13.241Z,22.01
2024-04-30T14:30:40.874Z,22.01
2024-04-30T14:33:11.231Z,22.02
2024-04-30T14:35:57.666Z,22.00
2024-04-30T14:38:27.929Z,21.95
2024-04-30T14:40:55.837Z,21.86
2024-04-30T14:43:23.381Z,21.84
2024-04-30T14:45:50.814Z,21.84
2024-04-30T14:48:18.401Z,21.84
2024-04-30T14:50:46.167Z,21.83
2024-04-30T14:53:13.597Z,21.83
2024-04-30T14:55:41.176Z,21.82
2024-04-30T14:58:09.011Z,21.80
2024-04-30T15:00:37.129Z,21.77
2024-04-30T15:03:08.102Z,21.77
2024-04-30T15:05:35.619Z,21.74
2024-04-30T15:08:03.948Z,21.73
2024-04-30T15:10:31.964Z,21.73
2024-04-30T15:12:59.506Z,21.69
2024-04-30T15:15:27.245Z,21.67
2024-04-30T15:17:54.764Z,21.69
2024-04-30T15:20:22.173Z,21.68
2024-04-30T15:22:49.756Z,21.70
2024-04-30T15:25:17.242Z,21.68
2024-04-30T15:27:44.832Z,21.69
2024-04-30T15:30:12.572Z,21.67
2024-04-30T15:32:40.404Z,21.66
2024-04-30T15:35:08.197Z,21.64
2024-04-30T15:37:35.689Z,21.62
2024-04-30T15:40:03.484Z,21.57
2024-04-30T15:42:30.869Z,21.52
2024-04-30T15:44:58.230Z,21.47
2024-04-30T15:47:25.801Z,21.42
2024-04-30T15:49:53.640Z,21.39
2024-04-30T15:52:21.196Z,21.36
2024-04-30T15:54:48.903Z,21.30
2024-04-30T15:57:16.309Z,21.22
2024-04-30T15:59:43.879Z,21.18
2024-04-30T16:02:11.311Z,21.12
2024-04-30T16:04:38.782Z,21.04
2024-04-30T16:07:06.191Z,20.96
2024-04-30T16:09:37.973Z,20.91
2024-04-30T16:12:05.490Z,20.83
2024-04-30T16:14:32.943Z,20.75
2024-04-30T16:17:00.487Z,20.70
2024-04-30T16:19:28.119Z,20.64
2024-04-30T16:21:55.682Z,20.56
2024-04-30T16:24:23.333Z,20.49
2024-04-30T16:26:52.104Z,20.41
2024-04-30T16:29:19.506Z,20.31
2024-04-30T16:31:47.039Z,20.19
2024-04-30T16:34:14.592Z,20.06
2024-04-30T16:36:42.072Z,19.95
2024-04-30T16:39:09.543Z,19.82
2024-04-30T16:41:36.903Z,19.70
2024-04-30T16:44:04.590Z,19.59
2024-04-30T16:46:32.507Z,19.46
2024-04-30T16:49:00.046Z,19.36
2024-04-30T16:51:27.590Z,19.25
2024-04-30T16:53:55.072Z,19.15
2024-04-30T16:56:23.285Z,19.07
2024-04-30T16:58:51.161Z,19.01
2024-04-30T17:01:18.905Z,18.96
2024-04-30T17:03:46.522Z,18.87
2024-04-30T17:06:14.037Z,18.74
2024-04-30T17:08:42.041Z,18.62
2024-04-30T17:11:12.275Z,18.52
2024-04-30T17:13:43.435Z,18.46
2024-04-30T17:16:20.144Z,18.38
2024-04-30T17:18:47.845Z,18.30
2024-04-30T17:21:18.988Z,18.25
2024-04-30T17:23:46.431Z,18.16
2024-04-30T17:26:15.575Z,18.10
2024-04-30T17:28:43.081Z,18.03
2024-04-30T17:31:15.109Z,17.97
2024-04-30T17:33:42.889Z,17.91
2024-04-30T17:36:10.287Z,17.84
2024-04-30T17:38:37.702Z,17.79
2024-04-30T17:41:05.130Z,17.74
2024-04-30T17:43:32.552Z,17.67
2024-04-30T17:45:59.994Z,17.62
2024-04-30T17:48:27.603Z,17.58
2024-04-30T17:50:55.037Z,17.52
2024-04-30T17:53:22.569Z,17.46
2024-04-30T17:55:50.135Z,17.41
2024-04-30T17:58:20.154Z,17.37
2024-04-30T18:00:47.920Z,17.33
2024-04-30T18:03:15.528Z,17.29
2024-04-30T18:05:43.094Z,17.26
2024-04-30T18:08:10.716Z,17.22
2024-04-30T18:10:45.745Z,17.20
2024-04-30T18:13:19.767Z,17.17
2024-04-30T18:15:47.283Z,17.15
2024-04-30T18:18:14.692Z,17.15
2024-04-30T18:20:42.658Z,17.16
2024-04-30T18:23:10.083Z,17.14
2024-04-30T18:25:37.558Z,17.11
2024-04-30T18:28:05.135Z,17.08
2024-04-30T18:30:32.704Z,16.90
2024-04-30T18:33:00.264Z,16.72
2024-04-30T18:35:30.376Z,16.84
2024-04-30T18:37:57.871Z,16.85
2024-04-30T18:40:25.376Z,16.83
2024-04-30T18:42:53.120Z,16.81
2024-04-30T18:45:23.503Z,16.80
2024-04-30T18:47:51.058Z,16.77
2024-04-30T18:50:19.859Z,16.72
2024-04-30T18:52:47.374Z,16.42
2024-04-30T18:55:15.006Z,16.49
2024-04-30T18:57:42.429Z,16.44
2024-04-30T19:00:11.616Z,16.43
2024-04-30T19:02:39.084Z,16.40
2024-04-30T19:05:07.480Z,16.40
2024-04-30T19:07:38.547Z,16.38
2024-04-30T19:10:06.695Z,16.36
2024-04-30T19:12:34.184Z,16.33
2024-04-30T19:15:01.655Z,16.31
2024-04-30T19:17:29.161Z,16.30
2024-04-30T19:19:57.454Z,16.26
2024-04-30T19:22:24.963Z,16.23
2024-04-30T19:24:52.473Z,16.20
2024-04-30T19:27:21.956Z,16.19
2024-04-30T19:29:49.586Z,16.18
2024-04-30T19:32:21.157Z,16.16
2024-04-30T19:34:48.635Z,16.16
2024-04-30T19:37:16.164Z,16.17
2024-04-30T19:39:44.249Z,16.16
2024-04-30T19:42:11.900Z,16.16
2024-04-30T19:44:39.464Z,16.13
2024-04-30T19:47:07.203Z,16.10
2024-04-30T19:49:34.785Z,16.09
2024-04-30T19:52:02.378Z,16.08
2024-04-30T19:54:29.817Z,16.06
2024-04-30T19:56:57.202Z,16.02
2024-04-30T19:59:24.826Z,15.97
2024-04-30T20:01:52.212Z,15.91
2024-04-30T20:04:19.684Z,15.84
2024-04-30T20:06:47.668Z,15.77
2024-04-30T20:09:16.085Z,15.71
2024-04-30T20:11:43.684Z,15.65
2024-04-30T20:14:11.357Z,15.58
2024-04-30T20:16:43.260Z,15.51
2024-04-30T20:19:10.976Z,15.46
2024-04-30T20:21:38.473Z,15.41
2024-04-30T20:24:08.324Z,15.37
2024-04-30T20:26:35.824Z,15.30
2024-04-30T20:29:08.025Z,15.25
2024-04-30T20:31:36.537Z,15.20
2024-04-30T20:34:04.130Z,15.14
2024-04-30T20:36:31.951Z,15.09
2024-04-30T20:38:59.482Z,15.03
2024-04-30T20:41:26.966Z,15.01
2024-04-30T20:43:54.535Z,14.98
2024-04-30T20:46:21.972Z,14.93
2024-04-30T20:48:49.929Z,14.88
2024-04-30T20:51:17.606Z,14.85
2024-04-30T20:53:46.483Z,14.81
2024-04-30T20:56:13.988Z,14.76
2024-04-30T20:58:41.478Z,14.73
2024-04-30T21:01:16.725Z,14.69
2024-04-30T21:03:44.770Z,14.65
2024-04-30T21:06:12.312Z,14.62
2024-04-30T21:08:39.680Z,14.59
2024-04-30T21:11:16.616Z,14.54
2024-04-30T21:13:44.020Z,14.47
2024-04-30T21:16:11.487Z,14.43
2024-04-30T21:18:39.128Z,14.38
2024-04-30T21:21:06.689Z,14.32
2024-04-30T21:23:34.084Z,14.27
2024-04-30T21:26:01.538Z,14.21
2024-04-30T21:28:30.227Z,14.16
2024-04-30T21:30:57.690Z,14.12
2024-04-30T21:33:25.187Z,14.08
2024-04-30T21:35:53.269Z,14.07
2024-04-30T21:38:20.683Z,14.05
2024-04-30T21:40:48.155Z,14.02
2024-04-30T21:43:15.548Z,14.00
2024-04-30T21:45:42.983Z,13.98
2024-04-30T21:48:10.463Z,13.96
2024-04-30T21:50:37.875Z,13.95
2024-04-30T21:53:05.352Z,13.91
2024-04-30T21:55:32.833Z,13.85
2024-04-30T21:58:00.302Z,13.81
2024-04-30T22:00:28.077Z,13.78
2024-04-30T22:03:02.562Z,13.74
2024-04-30T22:05:31.160Z,13.70
2024-04-30T22:07:58.752Z,13.67
2024-04-30T22:10:26.140Z,13.63
2024-04-30T22:12:53.591Z,13.59
2024-04-30T22:15:21.011Z,13.54
2024-04-30T22:17:48.507Z,13.47
2024-04-30T22:20:16.195Z,13.43
2024-04-30T22:22:43.614Z,13.38
2024-04-30T22:25:11.040Z,13.33
2024-04-30T22:27:38.447Z,13.29
2024-04-30T22:30:13.468Z,13.26
2024-04-30T22:32:48.639Z,13.21
2024-04-30T22:35:16.234Z,13.16
2024-04-30T22:37:43.576Z,13.12
2024-04-30T22:40:11.070Z,13.08
2024-04-30T22:42:39.031Z,13.04
2024-04-30T22:45:06.586Z,13.01
2024-04-30T22:47:34.145Z,12.97
2024-04-30T22:50:01.778Z,12.93
2024-04-30T22:52:29.239Z,12.90
2024-04-30T22:54:56.733Z,12.85
2024-04-30T22:57:24.288Z,12.79
2024-04-30T22:59:51.799Z,12.74
2024-04-30T23:02:19.207Z,12.72
2024-04-30T23:04:46.956Z,12.78
2024-04-30T23:07:14.458Z,12.69
2024-04-30T23:09:41.956Z,12.66
2024-04-30T23:12:09.458Z,12.64
2024-04-30T23:14:36.850Z,12.63
2024-04-30T23:17:04.485Z,12.61
2024-04-30T23:19:31.941Z,12.58
2024-04-30T23:21:59.588Z,12.54
2024-04-30T23:24:27.346Z,12.51
2024-04-30T23:26:54.890Z,12.49
2024-04-30T23:29:24.001Z,12.47
2024-04-30T23:31:52.939Z,12.42
2024-04-30T23:34:20.302Z,12.40
2024-04-30T23:36:47.771Z,12.38
2024-04-30T23:39:15.294Z,12.36
2024-04-30T23:41:42.714Z,12.34
2024-04-30T23:44:10.108Z,12.32
2024-04-30T23:46:37.572Z,12.32
2024-04-30T23:49:05.019Z,12.32
2024-04-30T23:51:32.498Z,12.28
2024-04-30T23:53:59.986Z,12.27
2024-04-30T23:56:27.490Z,12.26
2024-04-30T23:58:54.891Z,12.25
